Record high temperature 33.3°C Record low temperature -24.9°C Record high gust 32.4 kts Record high average 15.7 kts Record daily rain 0.0 mm Record low windchill -28.7°C Record high barometer 1042.1 hPa Record low barometer 947.2 hPa
Daily high pressure 1015.1 hPa Daily low pressure 1007.2 hPa Daily low windchill -2.0°C Daily high heat index 13.0°C Daily high gust speed 15.1 kts WSW Daily high average speed 0.0 kts W
ESUI V?der
LAST READING AT TIME: 6:45 PM DATE: January 08 2022, time of next update: 6:50 pm
Current WeatherDry Current Temperature 13.0°C (55.4°F), Apparent temp 12.6°C
Maximum Temperature (since midnight)13.0°C at: 11:03 PM Minimum Temperature (since midnight)1.1°C at: 7:37 AM
Average windspeed (ten minute)0.0 kts (0.0 kmh) Wind Direction (ten minute)N (360°)
Windchill Temperature 13.0°C Maximum Gust (last hour)0.0 kts (0.0 kmh) at: 11:00 AM
Maximum Gust (since midnight)15.1 kts (27.9 kmh) at: 12:04 AM Maximum 1 minute average (since midnight)0.0 kts (0.0 kmh) at: 12:24 AM
Rainfall (last hour)0.0 mm Rainfall (since midnight)0.0 mm (0.00 in.)---
Rainfall This month 0.0 mm (0.00 in.) Rainfall To date this year 0.0 mm (0.00 in.)
Maximum rain per minute (last hour)0.0 mm/min Maximum rain per hour (last 6 hours)0.0 mm/hour
Yesterdays rainfall 0.0 mm DewPoint 5.4°C (Wet Bulb :9.4°C )
Humidity 60 %, Humidex 12.4°C Barometer corrected to msl1007.2 hPa
Pressure change -3.2 hPa (last hour) Trend (last hour)FALLING
Pressure change (last 12 hours)-5.8 hPa Pressure change (last 6 hours)-5.8 hPa
Current Indoor Temp. -11.2°C
Current Indoor Hum. 58%



Weather report/warning/Metars

Ornskoldsvik Airport, Sweden (ESNO) 63-24N 018-58E
Jan 08, 2022 - 12:20 PM EST / 2022.01.08 1720 UTC
Wind: from the ENE (060 degrees) at 6 MPH (5 KT) (direction variable):0
Visibility: greater than 7 mile(s):0
Sky conditions: mostly cloudy
Temperature: 17 F (-8 C)
Windchill: 8 F (-13 C):1
Dew Point: 17 F (-8 C)
Relative Humidity: 100%
Pressure (altimeter): 29.65 in. Hg (1004 hPa)
ob: ESNO 081720Z AUTO 06005KT 030V100 9999 SCT008/// BKN010/// BKN012/// M08/M08 Q1004
cycle: 17
Kramfors Flygplats, Sweden (ESNK) 63-03N 017-46E 19M
Jan 08, 2022 - 12:20 PM EST / 2022.01.08 1720 UTC
Wind: from the W (280 degrees) at 1 MPH (1 KT):0
Visibility: greater than 7 mile(s):0
Sky conditions: overcast
ob: ESNK 081720Z AUTO 28001KT 9999 R17///// R35///// FEW013/// OVC020/// ///// Q////
cycle: 17
Umea Flygplats, Sweden (ESNU) 63-48N 020-17E 14M
Jan 08, 2022 - 12:20 PM EST / 2022.01.08 1720 UTC
Wind: from the NW (320 degrees) at 3 MPH (3 KT):0
Visibility: greater than 7 mile(s):0
Sky conditions: overcast
Temperature: 14 F (-10 C)
Dew Point: 14 F (-10 C)
Relative Humidity: 100%
Pressure (altimeter): 29.74 in. Hg (1007 hPa)
ob: ESNU 081720Z AUTO 32003KT 9999 OVC004/// M10/M10 Q1007
cycle: 17
Skelleftea Airport, Sweden (ESNS) 64-38N 021-05E
Jan 08, 2022 - 12:20 PM EST / 2022.01.08 1720 UTC
Wind: from the W (260 degrees) at 3 MPH (3 KT):0
Visibility: greater than 7 mile(s):0
Sky conditions: overcast
Weather: light snow
Temperature: 5 F (-15 C)
Dew Point: 1 F (-17 C)
Relative Humidity: 84%
Pressure (altimeter): 29.74 in. Hg (1007 hPa)
ob: ESNS 081720Z AUTO 26003KT 9999 -SN OVC009/// M15/M17 Q1007 RESG
cycle: 17



The data is logged at two minute intervals, but there is data recorded every minute.

Use the RELOAD facility on your browser to retrieve the latest data.

Click here for a daily update of the averages/extremes to date for the month
Created by "Weather Display" software version 10.37S at this start time/date 10:38:50 2022-01-08